createdAt,value
2018-12-15T00:01:27.650Z,4.20
2018-12-15T00:03:55.146Z,4.10
2018-12-15T00:06:22.601Z,3.70
2018-12-15T00:08:50.039Z,3.00
2018-12-15T00:11:17.487Z,3.40
2018-12-15T00:13:44.919Z,3.33
2018-12-15T00:16:12.467Z,3.50
2018-12-15T00:18:39.908Z,3.33
2018-12-15T00:21:07.362Z,3.57
2018-12-15T00:23:34.825Z,3.20
2018-12-15T00:26:02.275Z,2.87
2018-12-15T00:28:29.706Z,2.87
2018-12-15T00:30:57.056Z,3.03
2018-12-15T00:33:24.445Z,2.80
2018-12-15T00:35:51.876Z,3.03
2018-12-15T00:38:19.241Z,3.57
2018-12-15T00:40:46.667Z,3.00
2018-12-15T00:43:14.036Z,2.20
2018-12-15T00:45:41.386Z,2.70
2018-12-15T00:48:09.083Z,2.53
2018-12-15T00:50:36.538Z,2.80
2018-12-15T00:53:04.157Z,2.70
2018-12-15T00:55:31.555Z,2.90
2018-12-15T00:57:58.926Z,2.80
2018-12-15T01:00:26.331Z,2.63
2018-12-15T01:02:53.726Z,2.77
2018-12-15T01:05:21.116Z,2.80
2018-12-15T01:07:48.501Z,2.33
2018-12-15T01:10:15.911Z,2.37
2018-12-15T01:12:43.422Z,3.07
2018-12-15T01:15:10.815Z,2.10
2018-12-15T01:17:38.203Z,2.30
2018-12-15T01:20:06.219Z,2.13
2018-12-15T01:22:33.570Z,2.37
2018-12-15T01:25:00.961Z,2.33
2018-12-15T01:27:28.331Z,2.50
2018-12-15T01:29:55.699Z,2.23
2018-12-15T01:32:23.066Z,2.20
2018-12-15T01:34:50.431Z,2.63
2018-12-15T01:37:17.850Z,1.97
2018-12-15T01:39:45.268Z,1.97
2018-12-15T01:42:12.730Z,1.80
2018-12-15T01:44:40.358Z,2.30
2018-12-15T01:47:07.766Z,1.80
2018-12-15T01:49:35.133Z,1.57
2018-12-15T01:52:02.518Z,2.00
2018-12-15T01:54:29.931Z,1.87
2018-12-15T01:56:57.422Z,2.00
2018-12-15T01:59:24.862Z,2.20
2018-12-15T02:01:52.213Z,2.20
2018-12-15T02:04:19.568Z,2.30
2018-12-15T02:06:46.957Z,2.00
2018-12-15T02:09:14.416Z,2.17
2018-12-15T02:11:41.800Z,2.20
2018-12-15T02:14:09.195Z,2.40
2018-12-15T02:16:36.576Z,2.10
2018-12-15T02:19:03.960Z,2.80
2018-12-15T02:21:31.349Z,2.90
2018-12-15T02:23:58.777Z,2.93
2018-12-15T02:26:26.183Z,2.50
2018-12-15T02:28:53.634Z,2.60
2018-12-15T02:31:21.080Z,2.30
2018-12-15T02:33:48.473Z,2.30
2018-12-15T02:36:15.950Z,2.70
2018-12-15T02:38:43.293Z,2.20
2018-12-15T02:41:10.695Z,2.50
2018-12-15T02:43:38.147Z,2.53
2018-12-15T02:46:05.569Z,2.50
2018-12-15T02:48:33.068Z,2.50
2018-12-15T02:51:00.488Z,2.70
2018-12-15T02:53:27.884Z,2.20
2018-12-15T02:55:55.303Z,2.80
2018-12-15T02:58:22.788Z,2.23
2018-12-15T03:00:50.223Z,4.50
2018-12-15T03:03:17.610Z,2.70
2018-12-15T03:05:45.046Z,2.40
2018-12-15T03:08:12.480Z,2.70
2018-12-15T03:10:39.833Z,2.53
2018-12-15T03:13:07.231Z,2.60
2018-12-15T03:15:34.583Z,2.17
2018-12-15T03:18:02.011Z,2.70
2018-12-15T03:20:29.507Z,2.70
2018-12-15T03:22:56.919Z,2.87
2018-12-15T03:25:24.312Z,2.33
2018-12-15T03:27:51.722Z,2.67
2018-12-15T03:30:20.138Z,2.43
2018-12-15T03:32:47.505Z,2.60
2018-12-15T03:35:14.914Z,2.70
2018-12-15T03:37:42.361Z,2.60
2018-12-15T03:40:09.731Z,2.80
2018-12-15T03:42:37.134Z,2.70
2018-12-15T03:45:04.907Z,2.73
2018-12-15T03:47:32.299Z,2.50
2018-12-15T03:49:59.687Z,2.73
2018-12-15T03:52:27.046Z,2.53
2018-12-15T03:54:54.684Z,2.60
2018-12-15T03:57:22.087Z,2.23
2018-12-15T03:59:49.663Z,1.93
2018-12-15T04:02:17.087Z,2.50
2018-12-15T04:04:44.770Z,2.30
2018-12-15T04:07:12.122Z,2.67
2018-12-15T04:09:39.518Z,2.40
2018-12-15T04:12:06.883Z,2.30
2018-12-15T04:14:34.317Z,2.50
2018-12-15T04:17:01.764Z,2.40
2018-12-15T04:19:29.186Z,2.20
2018-12-15T04:22:01.055Z,2.07
2018-12-15T04:24:28.507Z,2.60
2018-12-15T04:26:55.857Z,2.27
2018-12-15T04:29:23.188Z,2.53
2018-12-15T04:31:50.606Z,2.20
2018-12-15T04:34:18.063Z,2.67
2018-12-15T04:36:45.426Z,2.57
2018-12-15T04:39:12.866Z,2.80
2018-12-15T04:41:40.316Z,2.80
2018-12-15T04:44:07.838Z,2.97
2018-12-15T04:46:35.215Z,2.80
2018-12-15T04:49:02.652Z,2.90
2018-12-15T04:51:30.009Z,2.47
2018-12-15T04:53:57.478Z,2.77
2018-12-15T04:56:24.903Z,2.60
2018-12-15T04:58:52.329Z,2.87
2018-12-15T05:01:19.746Z,2.73
2018-12-15T05:03:47.186Z,2.83
2018-12-15T05:06:14.567Z,2.60
2018-12-15T05:08:43.239Z,3.80
2018-12-15T05:11:10.609Z,3.00
2018-12-15T05:13:38.206Z,2.80
2018-12-15T05:16:05.582Z,2.90
2018-12-15T05:18:33.035Z,3.60
2018-12-15T05:21:00.498Z,3.20
2018-12-15T05:23:28.039Z,2.93
2018-12-15T05:25:55.447Z,2.90
2018-12-15T05:28:22.814Z,2.63
2018-12-15T05:30:50.218Z,2.50
2018-12-15T05:33:17.622Z,2.90
2018-12-15T05:35:45.032Z,2.40
2018-12-15T05:38:12.518Z,3.23
2018-12-15T05:40:39.911Z,3.13
2018-12-15T05:43:07.290Z,2.93
2018-12-15T05:45:34.761Z,3.40
2018-12-15T05:48:02.192Z,3.10
2018-12-15T05:50:29.691Z,2.47
2018-12-15T05:52:57.043Z,3.10
2018-12-15T05:55:24.484Z,3.27
2018-12-15T05:57:51.878Z,2.83
2018-12-15T06:00:19.312Z,3.77
2018-12-15T06:02:46.751Z,3.60
2018-12-15T06:05:14.470Z,3.40
2018-12-15T06:07:41.986Z,6.30
2018-12-15T06:10:09.362Z,9.73
2018-12-15T06:12:36.719Z,4.60
2018-12-15T06:15:04.635Z,23.93
2018-12-15T06:17:32.764Z,7.53
2018-12-15T06:20:00.165Z,13.03
2018-12-15T06:22:27.603Z,9.50
2018-12-15T06:24:55.105Z,19.13
2018-12-15T06:27:22.718Z,7.13
2018-12-15T06:29:50.334Z,18.60
2018-12-15T06:32:17.768Z,12.63
2018-12-15T06:34:45.459Z,22.87
2018-12-15T06:37:12.904Z,10.10
2018-12-15T06:39:40.798Z,3.00
2018-12-15T06:42:08.279Z,5.50
2018-12-15T06:44:35.834Z,6.47
2018-12-15T06:47:03.491Z,8.87
2018-12-15T06:49:31.175Z,4.70
2018-12-15T06:51:58.586Z,6.43
2018-12-15T06:54:25.994Z,3.20
2018-12-15T06:56:53.462Z,3.03
2018-12-15T06:59:20.932Z,8.10
2018-12-15T07:01:48.482Z,3.10
2018-12-15T07:04:15.877Z,3.50
2018-12-15T07:06:43.242Z,3.30
2018-12-15T07:09:10.672Z,3.30
2018-12-15T07:11:38.107Z,3.00
2018-12-15T07:14:05.579Z,3.47
2018-12-15T07:16:33.029Z,3.07
2018-12-15T07:19:00.464Z,2.87
2018-12-15T07:21:28.352Z,3.30
2018-12-15T07:23:55.869Z,3.33
2018-12-15T07:26:23.302Z,3.10
2018-12-15T07:28:50.734Z,2.90
2018-12-15T07:31:18.181Z,3.33
2018-12-15T07:33:46.723Z,2.90
2018-12-15T07:36:14.181Z,2.90
2018-12-15T07:38:41.582Z,2.80
2018-12-15T07:41:09.034Z,2.70
2018-12-15T07:43:36.694Z,2.80
2018-12-15T07:46:04.116Z,3.37
2018-12-15T07:48:31.608Z,3.30
2018-12-15T07:50:59.056Z,3.67
2018-12-15T07:53:26.475Z,3.50
2018-12-15T07:55:53.904Z,3.77
2018-12-15T07:58:21.424Z,3.50
2018-12-15T08:00:48.888Z,3.03
2018-12-15T08:03:16.360Z,3.70
2018-12-15T08:05:43.850Z,4.20
2018-12-15T08:08:11.471Z,3.83
2018-12-15T08:10:50.967Z,3.40
2018-12-15T08:13:25.827Z,3.03
2018-12-15T08:15:53.280Z,2.87
2018-12-15T08:18:20.768Z,3.87
2018-12-15T08:20:48.234Z,3.47
2018-12-15T08:23:15.752Z,4.17
2018-12-15T08:25:43.233Z,7.83
2018-12-15T08:28:14.191Z,4.10
2018-12-15T08:30:41.729Z,4.33
2018-12-15T08:33:09.294Z,5.20
2018-12-15T08:35:36.806Z,5.10
2018-12-15T08:38:04.288Z,5.50
2018-12-15T08:40:31.913Z,4.07
2018-12-15T08:42:59.432Z,4.13
2018-12-15T08:45:27.449Z,3.30
2018-12-15T08:47:55.088Z,4.40
2018-12-15T08:50:22.799Z,3.60
2018-12-15T08:52:50.377Z,3.63
2018-12-15T08:55:18.693Z,3.93
2018-12-15T08:57:48.676Z,3.90
2018-12-15T09:00:16.526Z,3.47
2018-12-15T09:02:44.206Z,3.47
2018-12-15T09:05:11.727Z,3.53
2018-12-15T09:07:39.634Z,3.30
2018-12-15T09:10:07.793Z,3.80
2018-12-15T09:12:35.306Z,3.30
2018-12-15T09:15:02.923Z,3.70
2018-12-15T09:17:30.375Z,3.03
2018-12-15T09:19:57.923Z,3.13
2018-12-15T09:22:25.384Z,3.53
2018-12-15T09:24:52.982Z,3.67
2018-12-15T09:27:20.460Z,3.37
2018-12-15T09:29:47.899Z,3.60
2018-12-15T09:32:15.299Z,3.37
2018-12-15T09:34:42.813Z,3.70
2018-12-15T09:37:10.536Z,3.50
2018-12-15T09:39:38.035Z,3.37
2018-12-15T09:42:05.523Z,3.80
2018-12-15T09:44:33.066Z,3.63
2018-12-15T09:47:00.485Z,3.20
2018-12-15T09:49:28.027Z,2.90
2018-12-15T09:51:55.414Z,3.50
2018-12-15T09:54:22.874Z,3.40
2018-12-15T09:56:50.818Z,3.10
2018-12-15T09:59:18.265Z,3.70
2018-12-15T10:01:45.842Z,3.00
2018-12-15T10:04:13.267Z,3.37
2018-12-15T10:06:40.839Z,3.00
2018-12-15T10:09:08.533Z,3.00
2018-12-15T10:11:36.070Z,2.93
2018-12-15T10:14:03.491Z,3.43
2018-12-15T10:16:32.609Z,3.60
2018-12-15T10:19:00.528Z,2.77
2018-12-15T10:21:28.339Z,2.83
2018-12-15T10:23:56.079Z,2.67
2018-12-15T10:26:23.502Z,2.77
2018-12-15T10:28:51.470Z,3.20
2018-12-15T10:31:24.599Z,2.53
2018-12-15T10:33:52.632Z,2.50
2018-12-15T10:36:20.671Z,2.80
2018-12-15T10:38:48.622Z,2.63
2018-12-15T10:41:16.147Z,2.60
2018-12-15T10:43:43.555Z,2.37
2018-12-15T10:46:11.127Z,2.93
2018-12-15T10:48:38.548Z,2.50
2018-12-15T10:51:06.588Z,2.63
2018-12-15T10:53:34.538Z,2.97
2018-12-15T10:56:02.470Z,2.80
2018-12-15T10:58:30.385Z,2.90
2018-12-15T11:01:02.596Z,2.73
2018-12-15T11:03:30.649Z,3.10
2018-12-15T11:05:58.148Z,2.63
2018-12-15T11:08:26.102Z,3.20
2018-12-15T11:10:53.636Z,3.53
2018-12-15T11:13:21.443Z,3.43
2018-12-15T11:15:48.968Z,3.17
2018-12-15T11:18:16.387Z,3.03
2018-12-15T11:20:43.839Z,3.40
2018-12-15T11:23:11.326Z,3.00
2018-12-15T11:25:38.710Z,2.90
2018-12-15T11:28:06.175Z,3.30
2018-12-15T11:30:33.697Z,3.23
2018-12-15T11:33:01.218Z,2.90
2018-12-15T11:35:28.959Z,2.90
2018-12-15T11:37:56.389Z,2.87
2018-12-15T11:40:24.040Z,2.80
2018-12-15T11:42:51.571Z,2.50
2018-12-15T11:45:19.130Z,2.80
2018-12-15T11:47:46.580Z,3.63
2018-12-15T11:50:14.089Z,3.33
2018-12-15T11:52:42.456Z,2.67
2018-12-15T11:55:10.010Z,2.63
2018-12-15T11:57:37.394Z,2.20
2018-12-15T12:00:05.621Z,2.27
2018-12-15T12:02:33.091Z,2.40
2018-12-15T12:05:00.529Z,2.57
2018-12-15T12:07:28.984Z,2.70
2018-12-15T12:09:56.626Z,2.90
2018-12-15T12:12:24.038Z,2.70
2018-12-15T12:14:58.372Z,2.73
2018-12-15T12:17:42.258Z,2.57
2018-12-15T12:20:09.677Z,5.57
2018-12-15T12:22:37.154Z,4.30
2018-12-15T12:25:04.622Z,2.87
2018-12-15T12:27:31.998Z,2.90
2018-12-15T12:29:59.406Z,3.40
2018-12-15T12:32:26.822Z,2.80
2018-12-15T12:34:54.166Z,3.30
2018-12-15T12:37:21.523Z,2.80
2018-12-15T12:39:48.944Z,2.60
2018-12-15T12:42:16.572Z,2.70
2018-12-15T12:44:43.970Z,2.80
2018-12-15T12:47:11.497Z,3.13
2018-12-15T12:49:38.901Z,2.90
2018-12-15T12:52:06.362Z,3.00
2018-12-15T12:54:33.828Z,2.83
2018-12-15T12:57:01.254Z,3.20
2018-12-15T12:59:28.683Z,3.23
2018-12-15T13:01:56.086Z,3.43
2018-12-15T13:04:23.612Z,3.40
2018-12-15T13:06:51.483Z,3.47
2018-12-15T13:09:18.983Z,3.30
2018-12-15T13:11:46.517Z,3.43
2018-12-15T13:14:13.996Z,3.30
2018-12-15T13:16:41.400Z,3.33
2018-12-15T13:19:08.847Z,3.17
2018-12-15T13:21:36.886Z,3.43
2018-12-15T13:24:04.388Z,3.53
2018-12-15T13:26:31.830Z,4.33
2018-12-15T13:28:59.235Z,3.93
2018-12-15T13:31:26.610Z,3.83
2018-12-15T13:33:54.069Z,3.80
2018-12-15T13:36:21.470Z,4.00
2018-12-15T13:38:48.919Z,3.70
2018-12-15T13:41:16.526Z,5.57
2018-12-15T13:43:43.947Z,4.47
2018-12-15T13:46:11.332Z,4.60
2018-12-15T13:48:38.702Z,4.57
2018-12-15T13:51:06.144Z,4.73
2018-12-15T13:53:33.606Z,4.00
2018-12-15T13:56:01.018Z,3.97
2018-12-15T13:58:28.954Z,5.87
2018-12-15T14:00:56.797Z,3.87
2018-12-15T14:03:25.146Z,4.20
2018-12-15T14:05:52.518Z,4.00
2018-12-15T14:08:19.942Z,3.70
2018-12-15T14:10:47.358Z,3.37
2018-12-15T14:13:14.743Z,4.00
2018-12-15T14:15:42.115Z,3.80
2018-12-15T14:18:09.469Z,4.33
2018-12-15T14:20:36.882Z,3.60
2018-12-15T14:23:04.478Z,3.57
2018-12-15T14:25:31.966Z,3.73
2018-12-15T14:27:59.407Z,3.57
2018-12-15T14:30:26.860Z,3.70
2018-12-15T14:32:54.264Z,4.13
2018-12-15T14:35:21.722Z,5.00
2018-12-15T14:37:49.192Z,5.27
2018-12-15T14:40:16.550Z,3.77
2018-12-15T14:42:43.962Z,4.80
2018-12-15T14:45:11.414Z,5.73
2018-12-15T14:47:38.835Z,3.47
2018-12-15T14:50:06.377Z,3.83
2018-12-15T14:52:33.838Z,4.37
2018-12-15T14:55:02.140Z,3.70
2018-12-15T14:57:29.548Z,4.67
2018-12-15T14:59:56.970Z,5.53
2018-12-15T15:02:24.524Z,4.87
2018-12-15T15:04:51.907Z,5.20
2018-12-15T15:07:19.303Z,5.00
2018-12-15T15:09:46.786Z,4.37
2018-12-15T15:12:14.269Z,3.53
2018-12-15T15:14:41.678Z,3.50
2018-12-15T15:17:09.134Z,4.20
2018-12-15T15:19:36.562Z,4.77
2018-12-15T15:22:03.956Z,3.37
2018-12-15T15:24:31.317Z,3.80
2018-12-15T15:26:58.734Z,3.77
2018-12-15T15:29:26.158Z,3.07
2018-12-15T15:31:53.618Z,3.43
2018-12-15T15:34:21.046Z,4.83
2018-12-15T15:36:48.486Z,3.70
2018-12-15T15:39:15.920Z,4.80
2018-12-15T15:41:43.348Z,3.70
2018-12-15T15:44:10.818Z,3.60
2018-12-15T15:46:38.223Z,3.80
2018-12-15T15:49:05.602Z,4.20
2018-12-15T15:51:32.986Z,3.60
2018-12-15T15:54:00.338Z,3.87
2018-12-15T15:56:27.844Z,5.47
2018-12-15T15:58:55.315Z,3.37
2018-12-15T16:01:23.539Z,3.57
2018-12-15T16:03:50.970Z,3.40
2018-12-15T16:06:18.542Z,3.80
2018-12-15T16:08:45.926Z,3.43
2018-12-15T16:11:13.442Z,3.30
2018-12-15T16:13:40.866Z,3.53
2018-12-15T16:16:38.974Z,3.70
2018-12-15T16:19:06.347Z,3.83
2018-12-15T16:21:33.724Z,4.43
2018-12-15T16:24:01.134Z,4.30
2018-12-15T16:26:28.527Z,4.27
2018-12-15T16:28:55.886Z,4.00
2018-12-15T16:31:24.158Z,3.97
2018-12-15T16:33:51.598Z,4.10
2018-12-15T16:36:19.060Z,3.67
2018-12-15T16:38:46.415Z,3.90
2018-12-15T16:41:13.849Z,4.60
2018-12-15T16:43:41.259Z,4.23
2018-12-15T16:46:08.662Z,5.27
2018-12-15T16:48:36.197Z,5.77
2018-12-15T16:51:03.635Z,6.20
2018-12-15T16:53:31.305Z,10.90
2018-12-15T16:55:58.722Z,7.27
2018-12-15T16:58:26.120Z,4.93
2018-12-15T17:00:54.338Z,11.10
2018-12-15T17:03:21.752Z,5.33
2018-12-15T17:05:49.207Z,6.43
2018-12-15T17:08:16.595Z,5.13
2018-12-15T17:10:44.026Z,5.10
2018-12-15T17:13:11.519Z,5.10
2018-12-15T17:15:38.920Z,4.50
2018-12-15T17:18:06.413Z,4.80
2018-12-15T17:20:33.770Z,4.63
2018-12-15T17:23:01.213Z,4.63
2018-12-15T17:25:28.648Z,6.40
2018-12-15T17:27:56.087Z,5.43
2018-12-15T17:30:23.474Z,6.43
2018-12-15T17:32:50.919Z,5.67
2018-12-15T17:35:18.311Z,4.80
2018-12-15T17:37:46.375Z,5.33
2018-12-15T17:40:13.858Z,5.50
2018-12-15T17:42:41.299Z,4.73
2018-12-15T17:45:08.823Z,5.20
2018-12-15T17:47:36.318Z,7.40
2018-12-15T17:50:04.038Z,4.90
2018-12-15T17:52:31.757Z,5.10
2018-12-15T17:54:59.163Z,5.60
2018-12-15T17:57:26.570Z,4.97
2018-12-15T17:59:53.968Z,5.30
2018-12-15T18:02:21.342Z,5.13
2018-12-15T18:04:48.786Z,6.03
2018-12-15T18:07:16.182Z,5.80
2018-12-15T18:09:43.595Z,7.17
2018-12-15T18:12:10.999Z,7.43
2018-12-15T18:14:38.401Z,7.77
2018-12-15T18:17:05.756Z,7.80
2018-12-15T18:19:33.825Z,6.03
2018-12-15T18:22:01.214Z,5.93
2018-12-15T18:24:28.683Z,5.80
2018-12-15T18:26:56.060Z,5.73
2018-12-15T18:29:23.454Z,5.00
2018-12-15T18:31:50.946Z,4.80
2018-12-15T18:34:18.302Z,4.87
2018-12-15T18:36:45.652Z,5.00
2018-12-15T18:39:13.007Z,4.93
2018-12-15T18:41:40.418Z,6.73
2018-12-15T18:44:07.806Z,8.57
2018-12-15T18:46:35.241Z,5.97
2018-12-15T18:49:02.630Z,5.40
2018-12-15T18:51:30.018Z,4.90
2018-12-15T18:53:57.436Z,4.93
2018-12-15T18:56:25.627Z,4.90
2018-12-15T18:58:53.363Z,4.87
2018-12-15T19:01:20.779Z,5.07
2018-12-15T19:03:48.297Z,6.00
2018-12-15T19:06:15.694Z,5.30
2018-12-15T19:08:43.151Z,5.57
2018-12-15T19:11:10.602Z,8.63
2018-12-15T19:13:37.981Z,9.00
2018-12-15T19:16:05.391Z,5.17
2018-12-15T19:18:32.760Z,4.30
2018-12-15T19:21:00.231Z,4.40
2018-12-15T19:23:27.755Z,4.63
2018-12-15T19:25:55.174Z,5.10
2018-12-15T19:28:22.594Z,4.03
2018-12-15T19:30:49.958Z,3.67
2018-12-15T19:33:17.418Z,4.40
2018-12-15T19:35:44.850Z,4.00
2018-12-15T19:38:12.207Z,3.00
2018-12-15T19:40:39.604Z,2.93
2018-12-15T19:43:07.118Z,3.03
2018-12-15T19:45:34.496Z,3.40
2018-12-15T19:48:02.247Z,4.00
2018-12-15T19:50:29.735Z,3.00
2018-12-15T19:52:57.189Z,3.27
2018-12-15T19:55:24.547Z,3.10
2018-12-15T19:57:51.961Z,3.30
2018-12-15T20:00:19.396Z,4.70
2018-12-15T20:02:46.798Z,4.40
2018-12-15T20:05:14.311Z,3.70
2018-12-15T20:07:41.785Z,4.43
2018-12-15T20:10:09.319Z,3.10
2018-12-15T20:12:36.731Z,4.90
2018-12-15T20:15:04.400Z,3.60
2018-12-15T20:17:31.770Z,3.50
2018-12-15T20:19:59.308Z,4.17
2018-12-15T20:22:26.738Z,4.13
2018-12-15T20:24:54.167Z,3.87
2018-12-15T20:27:21.584Z,3.53
2018-12-15T20:29:48.999Z,3.30
2018-12-15T20:32:16.448Z,3.80
2018-12-15T20:34:43.921Z,3.40
2018-12-15T20:37:11.377Z,3.23
2018-12-15T20:39:38.882Z,4.03
2018-12-15T20:42:06.369Z,3.80
2018-12-15T20:44:33.755Z,3.30
2018-12-15T20:47:01.111Z,4.20
2018-12-15T20:49:28.538Z,3.90
2018-12-15T20:51:56.567Z,4.80
2018-12-15T20:54:23.932Z,4.20
2018-12-15T20:56:51.367Z,3.37
2018-12-15T20:59:18.728Z,3.73
2018-12-15T21:01:46.104Z,3.53
2018-12-15T21:04:13.464Z,4.70
2018-12-15T21:06:40.821Z,3.60
2018-12-15T21:09:08.200Z,3.80
2018-12-15T21:11:35.558Z,4.27
2018-12-15T21:14:02.984Z,4.40
2018-12-15T21:16:31.530Z,4.10
2018-12-15T21:19:00.094Z,3.43
2018-12-15T21:21:28.466Z,3.10
2018-12-15T21:23:57.031Z,4.57
2018-12-15T21:26:25.100Z,7.00
2018-12-15T21:28:54.073Z,11.80
2018-12-15T21:31:22.789Z,5.90
2018-12-15T21:33:51.001Z,5.70
2018-12-15T21:36:18.484Z,5.00
2018-12-15T21:38:45.924Z,3.70
2018-12-15T21:41:14.677Z,3.47
2018-12-15T21:43:42.142Z,5.07
2018-12-15T21:46:09.897Z,3.80
2018-12-15T21:48:38.570Z,5.07
2018-12-15T21:51:06.054Z,4.20
2018-12-15T21:53:33.422Z,4.90
2018-12-15T21:56:00.854Z,5.93
2018-12-15T21:58:28.206Z,4.30
2018-12-15T22:00:55.566Z,4.90
2018-12-15T22:03:23.091Z,4.20
2018-12-15T22:05:50.497Z,4.30
2018-12-15T22:08:17.914Z,3.60
2018-12-15T22:10:45.579Z,4.27
2018-12-15T22:13:12.995Z,4.77
2018-12-15T22:15:40.463Z,4.03
2018-12-15T22:18:07.919Z,3.90
2018-12-15T22:20:35.480Z,4.87
2018-12-15T22:23:02.835Z,5.43
2018-12-15T22:25:30.210Z,4.30
2018-12-15T22:27:57.611Z,4.40
2018-12-15T22:30:25.007Z,4.73
2018-12-15T22:32:52.495Z,4.33
2018-12-15T22:35:19.946Z,4.30
2018-12-15T22:37:47.337Z,4.33
2018-12-15T22:40:14.693Z,5.10
2018-12-15T22:42:42.044Z,5.10
2018-12-15T22:45:09.482Z,4.67
2018-12-15T22:47:36.839Z,4.17
2018-12-15T22:50:04.983Z,4.10
2018-12-15T22:52:32.362Z,4.50
2018-12-15T22:54:59.778Z,5.20
2018-12-15T22:57:27.171Z,4.90
2018-12-15T22:59:54.611Z,4.87
2018-12-15T23:02:22.140Z,4.70
2018-12-15T23:04:49.506Z,5.03
2018-12-15T23:07:16.852Z,5.00
2018-12-15T23:09:44.237Z,5.17
2018-12-15T23:12:11.607Z,4.10
2018-12-15T23:14:38.991Z,4.53
2018-12-15T23:17:06.404Z,5.23
2018-12-15T23:19:33.819Z,4.50
2018-12-15T23:22:01.258Z,4.60
2018-12-15T23:24:28.673Z,4.20
2018-12-15T23:26:56.095Z,4.03
2018-12-15T23:29:23.443Z,4.23
2018-12-15T23:31:50.823Z,4.33
2018-12-15T23:34:19.475Z,5.47
2018-12-15T23:36:47.843Z,4.13
2018-12-15T23:39:15.258Z,4.10
2018-12-15T23:41:42.666Z,4.10
2018-12-15T23:44:10.090Z,4.33
2018-12-15T23:46:37.518Z,4.70
2018-12-15T23:49:04.922Z,4.77
2018-12-15T23:51:32.399Z,4.40
2018-12-15T23:53:59.763Z,4.33
2018-12-15T23:56:27.177Z,4.80
2018-12-15T23:58:54.506Z,4.83
